Pagrindinis puslapis
METAR-TAF:

METAR-TAF

Oro uostai :

Andøya, Norvegija

platuma: 69-18N, ilguma: 016-09E, Aukštis: 1 m

Dabartinis oras

Ataskaita buvo paskelbta 25 minutes, ne 20:20 UTC
Vėjas 3 kt iš Rytų
Temperatūra 7°C
Drėgmė 93%
Slėgis 1012 hPa
Matomumas 10 km arba daugiau
Išsisklaidę debesys ne aukštis 3500 ft
Su prošvaistėmis ne aukštis 5300 ft

METAR: ENAN 222020Z 10003KT 9999 SCT035 BKN053 07/06 Q1012

Laikas: 22:45 (20:45 UTC)

Prognozė

Prognozė galioja nuo 22 metu 18 UTC su 23 metu 18 UTC
Vėjas 8 kt iš Rytų
Matomumas 10 km arba daugiau
Su prošvaistėmis ne aukštis 5000 ft
Laikinai
nuo 22 metu 18 UTC su 23 metu 06 UTC
Matomumas: 3000 m
Su prošvaistėmis ne aukštis 400 ft
rūkana

TAF: ENAN 2218/2318 09008KT 9999 BKN050 TEMPO 2218/2306 3000 BR BKN004

Orai ataskaitas ir orų prognozės (METAR, TAF).

turimą stotys yra geltonos ir raudonos taškus žemėlapyje.

Perkelti pele per norėdami pamatyti stoties vardą.

Tada spustelėkite, norėdami matyti oro stebėjimo ir prognozės.

Norėdami pakeisti žemėlapį: spustelėkite ant žalios mygtukų su juodo kryžiaus žemyn,; žalią mygtuką su brūkšneliu, jei norite nutolinti; arba žalių rodyklių gretimoms žemėlapius.


METAR-TAF: